Marana, AZ

8:17 AM MST on September 30, 2014 (GMT -0700)
Tucson International | Change Station
CLOSE
Current Station
Airport
Location: Tucson,
Elevation: 2556 ft
Nearby Weather Stations

Elev 2556 ft 32.13 °N, 110.96 °W | Updated 24 minutes ago

Clear
Clear
65 °F
Feels Like 65 °F
N
7
Wind Variable Wind from SSE

Today
High -- | Low -- °F
--% Chance of Precip.
Yesterday
High -- | Low -- °F
Precip. -- in
6:18 AM 6:11 PM
Waxing Crescent, 37% visible
Pressure 29.86 in
Visibility 10.0 miles
Clouds Clear
Dew Point 48 °F
Humidity 54%
Rainfall 0.00 in
Snow Depth 1 in , 0 in , 1 in
UV 1 out of 12
Pollen 6.00 out of 12
Air Quality Not available.
Flu Activity Not available.
METAR KTUS 301453Z 15006KT 10SM CLR 18/09 A2996 RMK AO2 SLP110 T01830089 53007

More Conditions Fewer Conditions

Pressure 29.86 in
Visibility 10.0 miles
Clouds Clear
Dew Point 48 °F
Humidity 54%
Rainfall 0.00 in
Snow Depth 1 in , 0 in , 1 in
UV 1 out of 12
Pollen 6.00 out of 12
Air Quality Not available.
Flu Activity Not available.
METAR KTUS 301453Z 15006KT 10SM CLR 18/09 A2996 RMK AO2 SLP110 T01830089 53007

More Conditions Fewer Conditions

10-Day Weather Forecast

Almanac

Astronomy

Sep. 30, 2014 Rise Set
Actual Time 6:18 AM MST 6:11 PM MST
Civil Twilight 5:54 AM MST 6:35 PM MST
Nautical Twilight 5:25 AM MST 7:04 PM MST
Astronomical Twilight 4:57 AM MST 7:32 PM MST
Moon 12:14 PM MST 10:59 PM MST
Length of Visible Light 12h 41m
Length of Day
11h 52m
Tomorrow will be 1m 57s shorter.
Waxing Crescent, 37% of the Moon is Illuminated
Today
Waxing Crescent
Oct 1
First Quarter
Oct 8
Full
Oct 15
Last Quarter
Oct 23
New

Today's Extremes

State Highs State Lows

Community

WunderPhotos

Upload Photos

1,757,657 photos uploaded!

WunderBlogs® & News

Nearby

Snow Depth

Station Depth Elevation
Wildcat 1 in 7850 ft
Fry 0 in 7200 ft
White Horse Lake 1 in 7180 ft
Beaver Head 13 in 7990 ft
Snowslide Canyon 1 in 9730 ft

Earthquake Activity

City Distance Mag. Time & Date
No recent earthquake activity has been reported nearby.
Minimum magnitude displayed is 2.5.

Coastal Water Temperatures

Place Temperature
No Stations Reporting

Nearby Weather Stations